Flight Track Log - Related Links

Times and Time Zones

All times are in EDT time to prevent confusion due to time zone crossing. See the LOT457 flight status page for this flight to view local times or setup timezone preferences in your user account.

Time Position Orientation Groundspeed Altitude Reporting Facility
EDT Latitude Longitude Course Direction KTS MPH feet Rate Location/Type
Sat 10:31:32 AM 52.6142 20.8154 348° North  Level Estimated
Sat 10:32:32 AM 52.7131 20.7815 348° North  Level Estimated
Sat 10:33:32 AM 52.8120 20.7475 348° North  Level Estimated
Sat 10:34:32 AM 52.9109 20.7133 348° North  Level Estimated
Sat 10:35:32 AM 53.0098 20.6790 348° North  Level Estimated
Sat 10:36:32 AM 53.1086 20.6444 348° North  Level Estimated
Sat 10:37:32 AM 53.2075 20.6098 348° North  Level Estimated
Sat 10:38:32 AM 53.3063 20.5749 348° North  Level Estimated
Sat 10:39:32 AM 53.4051 20.5400 348° North  Level Estimated
Sat 10:40:32 AM 53.5040 20.5048 348° North  Level Estimated
Sat 10:41:32 AM 53.6028 20.4695 348° North  Level Estimated
Sat 10:42:32 AM 53.7016 20.4340 348° North  Level Estimated
Sat 10:43:32 AM 53.8004 20.3984 348° North  Level Estimated
Sat 10:44:32 AM 53.8991 20.3626 348° North  Level Estimated
Sat 10:45:32 AM 53.9979 20.3266 348° North  Level Estimated
Sat 10:46:32 AM 54.0967 20.2904 348° North  Level Estimated
Sat 10:47:32 AM 54.1954 20.2541 348° North  Level Estimated
Sat 10:48:32 AM 54.2942 20.2176 348° North  Level Estimated
Sat 10:49:32 AM 54.3929 20.1809 348° North  Level Estimated
Sat 10:50:32 AM 54.4916 20.1441 348° North  Level Estimated
Sat 10:51:32 AM 54.5903 20.1070 348° North  Level Estimated
Sat 10:52:32 AM 54.6890 20.0698 348° North  Level Estimated
Sat 10:53:32 AM 54.7877 20.0324 348° North  Level Estimated
Sat 10:54:32 AM 54.8863 19.9949 348° North  Level Estimated
Sat 10:55:32 AM 54.9850 19.9571 348° North  Level Estimated
Sat 10:56:32 AM 55.0836 19.9191 348° North  Level Estimated
Sat 10:57:32 AM 55.1823 19.8810 348° North  Level Estimated
Sat 10:58:32 AM 55.2809 19.8427 347° North  Level Estimated
Sat 10:59:32 AM 55.3795 19.8042 347° North  Level Estimated
Sat 11:00:32 AM 55.4781 19.7654 347° North  Level Estimated
Sat 11:01:32 AM 55.5767 19.7265 347° North  Level Estimated
Sat 11:02:32 AM 55.6752 19.6875 347° North  Level Estimated
Sat 11:03:32 AM 55.7738 19.6481 347° North  Level Estimated
Sat 11:04:32 AM 55.8723 19.6087 347° North  Level Estimated
Sat 11:05:32 AM 55.9709 19.5690 347° North  Level Estimated
Sat 11:06:32 AM 56.0694 19.5291 347° North  Level Estimated
Sat 11:07:32 AM 56.1679 19.4890 347° North  Level Estimated
Sat 11:08:32 AM 56.2664 19.4486 347° North  Level Estimated
Sat 11:09:32 AM 56.3649 19.4081 347° North  Level Estimated
Sat 11:10:32 AM 56.4634 19.3674 347° North  Level Estimated
Sat 11:11:32 AM 56.5618 19.3265 347° North  Level Estimated
Sat 11:12:32 AM 56.6603 19.2853 347° North  Level Estimated
Sat 11:13:32 AM 56.7587 19.2439 347° North  Level Estimated
Sat 11:14:32 AM 56.8571 19.2024 347° North  Level Estimated
Sat 11:15:32 AM 56.9555 19.1605 347° North  Level Estimated
Sat 11:16:32 AM 57.0539 19.1185 347° North  Level Estimated
Sat 11:17:32 AM 57.1523 19.0763 347° North  Level Estimated
Sat 11:18:32 AM 57.2506 19.0338 347° North  Level Estimated
Sat 11:19:32 AM 57.3490 18.9911 347° North  Level Estimated
Sat 11:20:32 AM 57.4473 18.9482 347° North  Level Estimated
Sat 11:21:32 AM 57.5456 18.9050 347° North  Level Estimated
Sat 11:22:32 AM 57.6439 18.8616 347° North  Level Estimated
Sat 11:23:32 AM 57.7422 18.8180 347° North  Level Estimated
Sat 11:24:32 AM 57.8405 18.7741 347° North  Level Estimated
Sat 11:25:32 AM 57.9387 18.7300 347° North  Level Estimated
Sat 11:26:32 AM 58.0370 18.6856 347° North  Level Estimated
Sat 11:27:32 AM 58.1352 18.6411 346° North  Level Estimated
Sat 11:28:32 AM 58.2334 18.5962 346° North  Level Estimated
Sat 11:29:32 AM 58.3316 18.5511 346° North  Level Estimated
Sat 11:30:32 AM 58.4298 18.5058 346° North  Level Estimated
Sat 11:31:32 AM 58.5279 18.4602 346° North  Level Estimated
Sat 11:32:32 AM 58.6261 18.4143 346° North  Level Estimated
Sat 11:33:32 AM 58.7242 18.3682 346° North  Level Estimated
Sat 11:34:32 AM 58.8223 18.3218 346° North  Level Estimated
Sat 11:35:32 AM 58.9204 18.2752 346° North  Level Estimated
Sat 11:36:32 AM 59.0185 18.2283 346° North  Level Estimated
Sat 11:37:32 AM 59.1165 18.1812 346° North  Level Estimated
Sat 11:38:32 AM 59.2146 18.1337 346° North  Level Estimated
Sat 11:39:32 AM 59.3126 18.0860 346° North  Level Estimated
Sat 11:40:32 AM 59.4106 18.0380 346° North  Level Estimated
Sat 11:41:32 AM 59.5086 17.9897 346° North  Level Estimated
Sat 11:42:32 AM 59.6066 17.9412 346° North  Level Estimated
Sat 11:43:32 AM 59.7045 17.8924 166° South  Level Estimated
Sat 11:44:32 AM 59.6066 17.9412 346° North  Level Estimated
Sat 11:45:32 AM 59.7045 17.8924 166° South  Level Estimated
Sat 11:46:32 AM 59.6066 17.9412 346° North  Level Estimated
Sat 11:47:32 AM 59.7045 17.8924 166° South  Level Estimated
Sat 11:48:32 AM 59.6066 17.9412 346° North  Level Estimated
Sat 11:49:32 AM 59.7045 17.8924 166° South  Level Estimated
Sat 11:50:32 AM 59.6066 17.9412 346° North  Level Estimated
Sat 11:51:32 AM 59.7045 17.8924 346° North  Level Estimated

Login

Don't have an account? Register now (free) for customized features, flight alerts, and more!